sensor_id;sensor_type;location;lat;lon;timestamp;P1;durP1;ratioP1;P2;durP2;ratioP2
15553;SDS011;7878;44.632;10.942;2023-10-19T00:01:06;29.60;;;22.57;;
15553;SDS011;7878;44.632;10.942;2023-10-19T00:03:34;31.00;;;23.10;;
15553;SDS011;7878;44.632;10.942;2023-10-19T00:06:00;29.47;;;21.10;;
15553;SDS011;7878;44.632;10.942;2023-10-19T00:08:25;27.90;;;20.93;;
15553;SDS011;7878;44.632;10.942;2023-10-19T00:11:01;30.70;;;21.33;;
15553;SDS011;7878;44.632;10.942;2023-10-19T00:13:34;29.40;;;20.83;;
15553;SDS011;7878;44.632;10.942;2023-10-19T00:16:01;28.00;;;20.23;;
15553;SDS011;7878;44.632;10.942;2023-10-19T00:18:27;30.10;;;20.97;;
15553;SDS011;7878;44.632;10.942;2023-10-19T00:20:55;26.43;;;20.70;;
15553;SDS011;7878;44.632;10.942;2023-10-19T00:23:24;25.53;;;19.67;;
15553;SDS011;7878;44.632;10.942;2023-10-19T00:25:54;20.27;;;17.30;;
15553;SDS011;7878;44.632;10.942;2023-10-19T00:28:21;20.80;;;16.60;;
15553;SDS011;7878;44.632;10.942;2023-10-19T00:30:47;21.47;;;18.03;;
15553;SDS011;7878;44.632;10.942;2023-10-19T00:33:16;22.90;;;18.50;;
15553;SDS011;7878;44.632;10.942;2023-10-19T00:35:53;24.77;;;18.03;;
15553;SDS011;7878;44.632;10.942;2023-10-19T00:38:26;23.37;;;19.23;;
15553;SDS011;7878;44.632;10.942;2023-10-19T00:40:53;22.53;;;17.87;;
15553;SDS011;7878;44.632;10.942;2023-10-19T00:43:30;22.60;;;17.83;;
15553;SDS011;7878;44.632;10.942;2023-10-19T00:46:07;22.50;;;19.60;;
15553;SDS011;7878;44.632;10.942;2023-10-19T00:48:55;26.70;;;20.00;;
15553;SDS011;7878;44.632;10.942;2023-10-19T00:51:31;27.27;;;20.80;;
15553;SDS011;7878;44.632;10.942;2023-10-19T00:54:27;28.27;;;20.40;;
15553;SDS011;7878;44.632;10.942;2023-10-19T00:57:02;28.73;;;21.53;;
15553;SDS011;7878;44.632;10.942;2023-10-19T00:59:32;29.33;;;20.97;;
15553;SDS011;7878;44.632;10.942;2023-10-19T01:02:04;27.73;;;20.87;;
15553;SDS011;7878;44.632;10.942;2023-10-19T01:04:47;27.37;;;20.77;;
15553;SDS011;7878;44.632;10.942;2023-10-19T01:07:32;25.43;;;20.00;;
15553;SDS011;7878;44.632;10.942;2023-10-19T01:10:03;16.97;;;14.90;;
15553;SDS011;7878;44.632;10.942;2023-10-19T01:12:33;18.20;;;14.77;;
15553;SDS011;7878;44.632;10.942;2023-10-19T01:15:11;22.00;;;17.23;;
15553;SDS011;7878;44.632;10.942;2023-10-19T01:17:38;21.10;;;17.00;;
15553;SDS011;7878;44.632;10.942;2023-10-19T01:20:15;25.20;;;18.00;;
15553;SDS011;7878;44.632;10.942;2023-10-19T01:23:10;20.47;;;16.70;;
15553;SDS011;7878;44.632;10.942;2023-10-19T01:28:24;20.90;;;16.23;;
15553;SDS011;7878;44.632;10.942;2023-10-19T01:31:05;21.37;;;15.73;;
15553;SDS011;7878;44.632;10.942;2023-10-19T01:33:42;20.83;;;16.40;;
15553;SDS011;7878;44.632;10.942;2023-10-19T01:36:09;20.13;;;16.70;;
15553;SDS011;7878;44.632;10.942;2023-10-19T01:38:35;20.93;;;16.40;;
15553;SDS011;7878;44.632;10.942;2023-10-19T01:41:02;23.43;;;16.67;;
15553;SDS011;7878;44.632;10.942;2023-10-19T01:43:48;19.47;;;15.37;;
15553;SDS011;7878;44.632;10.942;2023-10-19T01:46:16;22.33;;;16.07;;
15553;SDS011;7878;44.632;10.942;2023-10-19T01:48:49;22.70;;;15.43;;
15553;SDS011;7878;44.632;10.942;2023-10-19T01:51:20;19.60;;;15.37;;
15553;SDS011;7878;44.632;10.942;2023-10-19T01:53:47;19.97;;;15.37;;
15553;SDS011;7878;44.632;10.942;2023-10-19T01:56:14;17.03;;;13.47;;
15553;SDS011;7878;44.632;10.942;2023-10-19T01:58:45;18.83;;;15.53;;
15553;SDS011;7878;44.632;10.942;2023-10-19T02:01:12;15.10;;;13.13;;
15553;SDS011;7878;44.632;10.942;2023-10-19T02:03:39;15.20;;;12.93;;
15553;SDS011;7878;44.632;10.942;2023-10-19T02:06:11;16.23;;;13.37;;
15553;SDS011;7878;44.632;10.942;2023-10-19T02:08:49;16.53;;;13.23;;
15553;SDS011;7878;44.632;10.942;2023-10-19T02:11:19;16.03;;;12.53;;
15553;SDS011;7878;44.632;10.942;2023-10-19T02:13:49;17.03;;;13.33;;
15553;SDS011;7878;44.632;10.942;2023-10-19T02:16:17;14.17;;;12.60;;
15553;SDS011;7878;44.632;10.942;2023-10-19T02:18:47;17.27;;;12.90;;
15553;SDS011;7878;44.632;10.942;2023-10-19T02:21:15;16.60;;;13.57;;
15553;SDS011;7878;44.632;10.942;2023-10-19T02:23:46;15.97;;;13.70;;
15553;SDS011;7878;44.632;10.942;2023-10-19T02:26:15;19.13;;;14.10;;
15553;SDS011;7878;44.632;10.942;2023-10-19T02:28:46;17.87;;;14.37;;
15553;SDS011;7878;44.632;10.942;2023-10-19T02:31:12;16.63;;;14.07;;
15553;SDS011;7878;44.632;10.942;2023-10-19T02:33:45;16.13;;;13.10;;
15553;SDS011;7878;44.632;10.942;2023-10-19T02:36:14;15.43;;;12.40;;
15553;SDS011;7878;44.632;10.942;2023-10-19T02:38:41;14.97;;;12.70;;
15553;SDS011;7878;44.632;10.942;2023-10-19T02:41:13;15.07;;;12.67;;
15553;SDS011;7878;44.632;10.942;2023-10-19T02:43:44;21.13;;;12.60;;
15553;SDS011;7878;44.632;10.942;2023-10-19T02:46:26;15.33;;;12.73;;
15553;SDS011;7878;44.632;10.942;2023-10-19T02:48:52;15.90;;;13.03;;
15553;SDS011;7878;44.632;10.942;2023-10-19T02:51:17;15.00;;;12.30;;
15553;SDS011;7878;44.632;10.942;2023-10-19T02:53:44;14.93;;;12.37;;
15553;SDS011;7878;44.632;10.942;2023-10-19T02:56:11;15.77;;;11.87;;
15553;SDS011;7878;44.632;10.942;2023-10-19T02:58:45;14.13;;;12.07;;
15553;SDS011;7878;44.632;10.942;2023-10-19T03:01:17;14.80;;;13.07;;
15553;SDS011;7878;44.632;10.942;2023-10-19T03:03:46;14.83;;;11.73;;
15553;SDS011;7878;44.632;10.942;2023-10-19T03:06:14;15.57;;;13.53;;
15553;SDS011;7878;44.632;10.942;2023-10-19T03:08:44;14.90;;;12.93;;
15553;SDS011;7878;44.632;10.942;2023-10-19T03:11:11;13.87;;;12.13;;
15553;SDS011;7878;44.632;10.942;2023-10-19T03:13:38;15.50;;;11.87;;
15553;SDS011;7878;44.632;10.942;2023-10-19T03:16:06;14.30;;;11.43;;
15553;SDS011;7878;44.632;10.942;2023-10-19T03:18:34;15.30;;;13.27;;
15553;SDS011;7878;44.632;10.942;2023-10-19T03:21:01;14.50;;;11.53;;
15553;SDS011;7878;44.632;10.942;2023-10-19T03:23:27;12.00;;;10.73;;
15553;SDS011;7878;44.632;10.942;2023-10-19T03:25:56;13.47;;;11.27;;
15553;SDS011;7878;44.632;10.942;2023-10-19T03:28:40;12.63;;;10.60;;
15553;SDS011;7878;44.632;10.942;2023-10-19T03:31:06;12.47;;;10.20;;
15553;SDS011;7878;44.632;10.942;2023-10-19T03:33:33;10.40;;;9.30;;
15553;SDS011;7878;44.632;10.942;2023-10-19T03:36:01;13.80;;;12.17;;
15553;SDS011;7878;44.632;10.942;2023-10-19T03:38:29;12.17;;;10.47;;
15553;SDS011;7878;44.632;10.942;2023-10-19T03:40:59;12.20;;;9.97;;
15553;SDS011;7878;44.632;10.942;2023-10-19T03:43:31;12.97;;;10.17;;
15553;SDS011;7878;44.632;10.942;2023-10-19T03:45:58;14.13;;;10.10;;
15553;SDS011;7878;44.632;10.942;2023-10-19T03:48:29;10.40;;;9.30;;
15553;SDS011;7878;44.632;10.942;2023-10-19T03:51:01;10.60;;;9.17;;
15553;SDS011;7878;44.632;10.942;2023-10-19T03:53:28;12.80;;;11.10;;
15553;SDS011;7878;44.632;10.942;2023-10-19T03:55:54;13.73;;;11.07;;
15553;SDS011;7878;44.632;10.942;2023-10-19T03:58:20;14.30;;;11.60;;
15553;SDS011;7878;44.632;10.942;2023-10-19T04:00:47;14.43;;;11.60;;
15553;SDS011;7878;44.632;10.942;2023-10-19T04:03:14;12.50;;;10.47;;
15553;SDS011;7878;44.632;10.942;2023-10-19T04:05:42;11.40;;;10.10;;
15553;SDS011;7878;44.632;10.942;2023-10-19T04:08:11;10.40;;;9.10;;
15553;SDS011;7878;44.632;10.942;2023-10-19T04:10:39;11.57;;;10.13;;
15553;SDS011;7878;44.632;10.942;2023-10-19T04:13:10;14.40;;;11.33;;
15553;SDS011;7878;44.632;10.942;2023-10-19T04:15:36;13.83;;;11.70;;
15553;SDS011;7878;44.632;10.942;2023-10-19T04:18:02;14.67;;;12.17;;
15553;SDS011;7878;44.632;10.942;2023-10-19T04:20:36;15.80;;;11.53;;
15553;SDS011;7878;44.632;10.942;2023-10-19T04:23:18;14.93;;;11.47;;
15553;SDS011;7878;44.632;10.942;2023-10-19T04:25:46;14.60;;;11.87;;
15553;SDS011;7878;44.632;10.942;2023-10-19T04:28:12;16.83;;;12.73;;
15553;SDS011;7878;44.632;10.942;2023-10-19T04:30:40;15.30;;;12.63;;
15553;SDS011;7878;44.632;10.942;2023-10-19T04:33:06;15.23;;;12.17;;
15553;SDS011;7878;44.632;10.942;2023-10-19T04:35:35;16.77;;;12.83;;
15553;SDS011;7878;44.632;10.942;2023-10-19T04:38:03;17.27;;;13.67;;
15553;SDS011;7878;44.632;10.942;2023-10-19T04:40:31;16.10;;;12.33;;
15553;SDS011;7878;44.632;10.942;2023-10-19T04:42:57;15.30;;;12.13;;
15553;SDS011;7878;44.632;10.942;2023-10-19T04:45:23;16.30;;;12.43;;
15553;SDS011;7878;44.632;10.942;2023-10-19T04:47:52;18.63;;;13.53;;
15553;SDS011;7878;44.632;10.942;2023-10-19T04:50:17;16.90;;;12.87;;
15553;SDS011;7878;44.632;10.942;2023-10-19T04:52:43;18.53;;;13.63;;
15553;SDS011;7878;44.632;10.942;2023-10-19T04:55:09;18.97;;;14.00;;
15553;SDS011;7878;44.632;10.942;2023-10-19T04:57:35;18.63;;;14.70;;
15553;SDS011;7878;44.632;10.942;2023-10-19T05:00:01;18.97;;;15.13;;
15553;SDS011;7878;44.632;10.942;2023-10-19T05:02:28;18.20;;;15.03;;
15553;SDS011;7878;44.632;10.942;2023-10-19T05:04:54;21.37;;;15.07;;
15553;SDS011;7878;44.632;10.942;2023-10-19T05:07:20;18.93;;;14.77;;
15553;SDS011;7878;44.632;10.942;2023-10-19T05:09:46;18.03;;;14.47;;
15553;SDS011;7878;44.632;10.942;2023-10-19T05:12:12;19.73;;;15.07;;
15553;SDS011;7878;44.632;10.942;2023-10-19T05:14:39;20.50;;;14.80;;
15553;SDS011;7878;44.632;10.942;2023-10-19T05:17:07;20.63;;;15.90;;
15553;SDS011;7878;44.632;10.942;2023-10-19T05:19:37;21.57;;;15.57;;
15553;SDS011;7878;44.632;10.942;2023-10-19T05:22:04;22.70;;;16.00;;
15553;SDS011;7878;44.632;10.942;2023-10-19T05:24:31;22.30;;;16.77;;
15553;SDS011;7878;44.632;10.942;2023-10-19T05:26:57;22.23;;;16.17;;
15553;SDS011;7878;44.632;10.942;2023-10-19T05:29:23;22.07;;;17.67;;
15553;SDS011;7878;44.632;10.942;2023-10-19T05:31:50;22.80;;;17.57;;
15553;SDS011;7878;44.632;10.942;2023-10-19T05:34:21;22.77;;;17.43;;
15553;SDS011;7878;44.632;10.942;2023-10-19T05:36:47;22.50;;;17.17;;
15553;SDS011;7878;44.632;10.942;2023-10-19T05:39:16;25.30;;;18.67;;
15553;SDS011;7878;44.632;10.942;2023-10-19T05:41:43;23.97;;;18.07;;
15553;SDS011;7878;44.632;10.942;2023-10-19T05:44:09;26.33;;;19.27;;
15553;SDS011;7878;44.632;10.942;2023-10-19T05:46:35;24.70;;;18.30;;
15553;SDS011;7878;44.632;10.942;2023-10-19T05:49:01;27.10;;;18.43;;
15553;SDS011;7878;44.632;10.942;2023-10-19T05:51:29;30.10;;;20.77;;
15553;SDS011;7878;44.632;10.942;2023-10-19T05:53:55;23.30;;;18.20;;
15553;SDS011;7878;44.632;10.942;2023-10-19T05:56:27;22.50;;;17.07;;
15553;SDS011;7878;44.632;10.942;2023-10-19T05:58:53;24.90;;;18.20;;
15553;SDS011;7878;44.632;10.942;2023-10-19T06:01:19;25.70;;;17.40;;
15553;SDS011;7878;44.632;10.942;2023-10-19T06:03:45;23.53;;;17.77;;
15553;SDS011;7878;44.632;10.942;2023-10-19T06:06:11;25.50;;;18.10;;
15553;SDS011;7878;44.632;10.942;2023-10-19T06:08:36;26.53;;;18.60;;
15553;SDS011;7878;44.632;10.942;2023-10-19T06:11:02;27.00;;;19.03;;
15553;SDS011;7878;44.632;10.942;2023-10-19T06:13:29;27.43;;;19.17;;
15553;SDS011;7878;44.632;10.942;2023-10-19T06:15:54;27.80;;;19.30;;
15553;SDS011;7878;44.632;10.942;2023-10-19T06:18:20;27.70;;;19.93;;
15553;SDS011;7878;44.632;10.942;2023-10-19T06:20:46;27.57;;;19.77;;
15553;SDS011;7878;44.632;10.942;2023-10-19T06:23:13;27.00;;;19.50;;
15553;SDS011;7878;44.632;10.942;2023-10-19T06:25:39;26.57;;;18.27;;
15553;SDS011;7878;44.632;10.942;2023-10-19T06:28:08;27.60;;;20.50;;
15553;SDS011;7878;44.632;10.942;2023-10-19T06:30:34;28.73;;;20.87;;
15553;SDS011;7878;44.632;10.942;2023-10-19T06:33:00;31.90;;;21.43;;
15553;SDS011;7878;44.632;10.942;2023-10-19T06:35:26;32.40;;;22.57;;
15553;SDS011;7878;44.632;10.942;2023-10-19T06:37:53;33.70;;;22.70;;
15553;SDS011;7878;44.632;10.942;2023-10-19T06:40:22;31.27;;;21.57;;
15553;SDS011;7878;44.632;10.942;2023-10-19T06:42:49;33.77;;;23.43;;
15553;SDS011;7878;44.632;10.942;2023-10-19T06:45:15;33.37;;;22.63;;
15553;SDS011;7878;44.632;10.942;2023-10-19T06:47:44;40.30;;;24.17;;
15553;SDS011;7878;44.632;10.942;2023-10-19T06:50:12;39.83;;;26.00;;
15553;SDS011;7878;44.632;10.942;2023-10-19T06:52:40;40.63;;;25.23;;
15553;SDS011;7878;44.632;10.942;2023-10-19T06:55:07;40.70;;;26.93;;
15553;SDS011;7878;44.632;10.942;2023-10-19T06:57:41;40.33;;;26.30;;
15553;SDS011;7878;44.632;10.942;2023-10-19T07:00:13;39.70;;;26.50;;
15553;SDS011;7878;44.632;10.942;2023-10-19T07:02:52;42.37;;;26.80;;
15553;SDS011;7878;44.632;10.942;2023-10-19T07:05:20;43.07;;;27.40;;
15553;SDS011;7878;44.632;10.942;2023-10-19T07:07:47;42.20;;;25.70;;
15553;SDS011;7878;44.632;10.942;2023-10-19T07:10:14;45.47;;;26.87;;
15553;SDS011;7878;44.632;10.942;2023-10-19T07:12:41;43.67;;;27.50;;
15553;SDS011;7878;44.632;10.942;2023-10-19T07:15:08;46.17;;;27.97;;
15553;SDS011;7878;44.632;10.942;2023-10-19T07:17:34;44.73;;;28.03;;
15553;SDS011;7878;44.632;10.942;2023-10-19T07:20:02;41.43;;;26.67;;
15553;SDS011;7878;44.632;10.942;2023-10-19T07:22:31;45.43;;;27.67;;
15553;SDS011;7878;44.632;10.942;2023-10-19T07:24:57;46.47;;;28.57;;
15553;SDS011;7878;44.632;10.942;2023-10-19T07:27:23;49.57;;;29.17;;
15553;SDS011;7878;44.632;10.942;2023-10-19T07:29:52;50.70;;;29.07;;
15553;SDS011;7878;44.632;10.942;2023-10-19T07:32:18;52.43;;;30.20;;
15553;SDS011;7878;44.632;10.942;2023-10-19T07:34:44;53.67;;;30.50;;
15553;SDS011;7878;44.632;10.942;2023-10-19T07:37:10;48.57;;;29.83;;
15553;SDS011;7878;44.632;10.942;2023-10-19T07:39:44;57.73;;;29.87;;
15553;SDS011;7878;44.632;10.942;2023-10-19T07:42:10;57.97;;;32.10;;
15553;SDS011;7878;44.632;10.942;2023-10-19T07:44:36;59.00;;;32.70;;
15553;SDS011;7878;44.632;10.942;2023-10-19T07:47:02;61.83;;;34.90;;
15553;SDS011;7878;44.632;10.942;2023-10-19T07:49:28;71.60;;;35.73;;
15553;SDS011;7878;44.632;10.942;2023-10-19T07:51:54;67.33;;;33.87;;
15553;SDS011;7878;44.632;10.942;2023-10-19T07:54:20;62.30;;;35.10;;
15553;SDS011;7878;44.632;10.942;2023-10-19T07:56:46;58.67;;;33.17;;
15553;SDS011;7878;44.632;10.942;2023-10-19T07:59:12;63.07;;;35.77;;
15553;SDS011;7878;44.632;10.942;2023-10-19T08:01:38;65.80;;;35.90;;
15553;SDS011;7878;44.632;10.942;2023-10-19T08:04:04;59.40;;;34.33;;
15553;SDS011;7878;44.632;10.942;2023-10-19T08:06:30;69.37;;;35.10;;
15553;SDS011;7878;44.632;10.942;2023-10-19T08:08:56;69.30;;;37.10;;
15553;SDS011;7878;44.632;10.942;2023-10-19T08:11:23;76.40;;;37.83;;
15553;SDS011;7878;44.632;10.942;2023-10-19T08:13:49;71.30;;;36.33;;
15553;SDS011;7878;44.632;10.942;2023-10-19T08:16:15;62.07;;;33.43;;
15553;SDS011;7878;44.632;10.942;2023-10-19T08:18:42;66.77;;;35.47;;
15553;SDS011;7878;44.632;10.942;2023-10-19T08:21:08;62.30;;;34.47;;
15553;SDS011;7878;44.632;10.942;2023-10-19T08:23:33;61.27;;;32.17;;
15553;SDS011;7878;44.632;10.942;2023-10-19T08:25:59;63.80;;;35.03;;
15553;SDS011;7878;44.632;10.942;2023-10-19T08:28:25;68.57;;;32.73;;
15553;SDS011;7878;44.632;10.942;2023-10-19T08:30:51;53.93;;;29.63;;
15553;SDS011;7878;44.632;10.942;2023-10-19T08:33:25;58.17;;;31.43;;
15553;SDS011;7878;44.632;10.942;2023-10-19T08:35:52;58.30;;;31.27;;
15553;SDS011;7878;44.632;10.942;2023-10-19T08:38:27;60.50;;;31.50;;
15553;SDS011;7878;44.632;10.942;2023-10-19T08:40:53;61.33;;;32.33;;
15553;SDS011;7878;44.632;10.942;2023-10-19T08:43:19;63.43;;;31.20;;
15553;SDS011;7878;44.632;10.942;2023-10-19T08:45:46;55.00;;;30.03;;
15553;SDS011;7878;44.632;10.942;2023-10-19T08:48:12;56.43;;;30.97;;
15553;SDS011;7878;44.632;10.942;2023-10-19T08:50:39;54.37;;;30.83;;
15553;SDS011;7878;44.632;10.942;2023-10-19T08:53:06;55.87;;;31.27;;
15553;SDS011;7878;44.632;10.942;2023-10-19T08:55:33;56.80;;;31.53;;
15553;SDS011;7878;44.632;10.942;2023-10-19T08:57:59;46.23;;;27.70;;
15553;SDS011;7878;44.632;10.942;2023-10-19T09:00:25;51.67;;;28.37;;
15553;SDS011;7878;44.632;10.942;2023-10-19T09:02:52;47.23;;;25.53;;
15553;SDS011;7878;44.632;10.942;2023-10-19T09:05:19;47.97;;;26.57;;
15553;SDS011;7878;44.632;10.942;2023-10-19T09:07:50;49.00;;;24.77;;
15553;SDS011;7878;44.632;10.942;2023-10-19T09:10:20;43.70;;;28.87;;
15553;SDS011;7878;44.632;10.942;2023-10-19T09:13:05;44.83;;;25.03;;
15553;SDS011;7878;44.632;10.942;2023-10-19T09:15:35;43.07;;;25.47;;
15553;SDS011;7878;44.632;10.942;2023-10-19T09:18:17;47.07;;;25.33;;
15553;SDS011;7878;44.632;10.942;2023-10-19T09:20:45;43.40;;;24.77;;
15553;SDS011;7878;44.632;10.942;2023-10-19T09:23:21;43.97;;;26.67;;
15553;SDS011;7878;44.632;10.942;2023-10-19T09:25:49;49.07;;;25.57;;
15553;SDS011;7878;44.632;10.942;2023-10-19T09:28:15;42.80;;;25.57;;
15553;SDS011;7878;44.632;10.942;2023-10-19T09:30:41;46.63;;;26.70;;
15553;SDS011;7878;44.632;10.942;2023-10-19T09:33:09;53.03;;;27.03;;
15553;SDS011;7878;44.632;10.942;2023-10-19T09:35:34;52.77;;;26.73;;
15553;SDS011;7878;44.632;10.942;2023-10-19T09:38:03;43.43;;;25.87;;
15553;SDS011;7878;44.632;10.942;2023-10-19T09:40:31;47.17;;;26.20;;
15553;SDS011;7878;44.632;10.942;2023-10-19T09:42:58;40.67;;;24.93;;
15553;SDS011;7878;44.632;10.942;2023-10-19T09:45:29;42.27;;;25.30;;
15553;SDS011;7878;44.632;10.942;2023-10-19T09:47:57;45.23;;;24.17;;
15553;SDS011;7878;44.632;10.942;2023-10-19T09:50:27;45.33;;;24.57;;
15553;SDS011;7878;44.632;10.942;2023-10-19T09:52:52;40.30;;;24.77;;
15553;SDS011;7878;44.632;10.942;2023-10-19T09:55:28;39.00;;;22.70;;
15553;SDS011;7878;44.632;10.942;2023-10-19T09:58:04;40.57;;;24.57;;
15553;SDS011;7878;44.632;10.942;2023-10-19T10:00:37;37.50;;;22.93;;
15553;SDS011;7878;44.632;10.942;2023-10-19T10:03:03;39.73;;;22.10;;
15553;SDS011;7878;44.632;10.942;2023-10-19T10:10:46;37.33;;;22.57;;
15553;SDS011;7878;44.632;10.942;2023-10-19T10:15:56;34.23;;;21.50;;
15553;SDS011;7878;44.632;10.942;2023-10-19T10:18:23;38.50;;;21.63;;
15553;SDS011;7878;44.632;10.942;2023-10-19T10:21:04;35.60;;;22.40;;
15553;SDS011;7878;44.632;10.942;2023-10-19T10:23:30;34.37;;;21.27;;
15553;SDS011;7878;44.632;10.942;2023-10-19T10:25:59;42.53;;;23.37;;
15553;SDS011;7878;44.632;10.942;2023-10-19T10:28:25;37.50;;;23.07;;
15553;SDS011;7878;44.632;10.942;2023-10-19T10:31:08;41.87;;;22.77;;
15553;SDS011;7878;44.632;10.942;2023-10-19T10:33:45;44.00;;;22.87;;
15553;SDS011;7878;44.632;10.942;2023-10-19T10:36:14;39.67;;;21.97;;
15553;SDS011;7878;44.632;10.942;2023-10-19T10:38:42;45.13;;;23.13;;
15553;SDS011;7878;44.632;10.942;2023-10-19T10:41:08;49.80;;;27.33;;
15553;SDS011;7878;44.632;10.942;2023-10-19T10:43:53;43.40;;;25.67;;
15553;SDS011;7878;44.632;10.942;2023-10-19T10:46:20;43.90;;;26.30;;
15553;SDS011;7878;44.632;10.942;2023-10-19T10:48:50;42.50;;;25.93;;
15553;SDS011;7878;44.632;10.942;2023-10-19T10:51:17;42.50;;;24.33;;
15553;SDS011;7878;44.632;10.942;2023-10-19T10:53:46;47.30;;;25.77;;
15553;SDS011;7878;44.632;10.942;2023-10-19T10:56:17;39.43;;;23.07;;
15553;SDS011;7878;44.632;10.942;2023-10-19T10:58:44;45.77;;;23.77;;
15553;SDS011;7878;44.632;10.942;2023-10-19T11:01:10;46.97;;;25.00;;
15553;SDS011;7878;44.632;10.942;2023-10-19T11:03:36;37.70;;;23.73;;
15553;SDS011;7878;44.632;10.942;2023-10-19T11:06:06;44.10;;;23.80;;
15553;SDS011;7878;44.632;10.942;2023-10-19T11:08:35;54.33;;;28.07;;
15553;SDS011;7878;44.632;10.942;2023-10-19T11:11:02;51.97;;;29.57;;
15553;SDS011;7878;44.632;10.942;2023-10-19T11:13:30;52.33;;;30.50;;
15553;SDS011;7878;44.632;10.942;2023-10-19T11:15:58;56.83;;;30.23;;
15553;SDS011;7878;44.632;10.942;2023-10-19T11:18:29;56.57;;;30.83;;
15553;SDS011;7878;44.632;10.942;2023-10-19T11:21:07;57.50;;;31.07;;
15553;SDS011;7878;44.632;10.942;2023-10-19T11:23:35;72.93;;;32.73;;
15553;SDS011;7878;44.632;10.942;2023-10-19T11:26:02;59.93;;;31.83;;
15553;SDS011;7878;44.632;10.942;2023-10-19T11:28:29;61.57;;;32.27;;
15553;SDS011;7878;44.632;10.942;2023-10-19T11:31:09;55.50;;;32.13;;
15553;SDS011;7878;44.632;10.942;2023-10-19T11:33:43;48.20;;;30.77;;
15553;SDS011;7878;44.632;10.942;2023-10-19T11:36:13;48.07;;;29.90;;
15553;SDS011;7878;44.632;10.942;2023-10-19T11:38:43;55.13;;;30.77;;
15553;SDS011;7878;44.632;10.942;2023-10-19T11:41:10;53.73;;;29.43;;
15553;SDS011;7878;44.632;10.942;2023-10-19T11:43:40;53.83;;;33.77;;
15553;SDS011;7878;44.632;10.942;2023-10-19T11:46:07;59.57;;;35.00;;
15553;SDS011;7878;44.632;10.942;2023-10-19T11:48:35;52.77;;;33.80;;
15553;SDS011;7878;44.632;10.942;2023-10-19T11:51:04;61.10;;;34.47;;
15553;SDS011;7878;44.632;10.942;2023-10-19T11:53:35;53.00;;;32.43;;
15553;SDS011;7878;44.632;10.942;2023-10-19T11:56:03;54.27;;;35.07;;
15553;SDS011;7878;44.632;10.942;2023-10-19T11:58:31;62.23;;;32.07;;
15553;SDS011;7878;44.632;10.942;2023-10-19T12:01:00;56.43;;;33.50;;
15553;SDS011;7878;44.632;10.942;2023-10-19T12:03:33;51.83;;;32.43;;
15553;SDS011;7878;44.632;10.942;2023-10-19T12:06:02;56.17;;;32.67;;
15553;SDS011;7878;44.632;10.942;2023-10-19T12:08:31;48.70;;;29.87;;
15553;SDS011;7878;44.632;10.942;2023-10-19T12:10:58;54.87;;;30.80;;
15553;SDS011;7878;44.632;10.942;2023-10-19T12:13:24;56.33;;;30.10;;
15553;SDS011;7878;44.632;10.942;2023-10-19T12:15:50;45.50;;;27.70;;
15553;SDS011;7878;44.632;10.942;2023-10-19T12:18:20;50.70;;;27.73;;
15553;SDS011;7878;44.632;10.942;2023-10-19T12:20:46;43.80;;;27.57;;
15553;SDS011;7878;44.632;10.942;2023-10-19T12:23:12;53.97;;;28.77;;
15553;SDS011;7878;44.632;10.942;2023-10-19T12:25:39;51.87;;;30.60;;
15553;SDS011;7878;44.632;10.942;2023-10-19T12:28:07;52.67;;;31.10;;
15553;SDS011;7878;44.632;10.942;2023-10-19T12:30:33;47.20;;;30.70;;
15553;SDS011;7878;44.632;10.942;2023-10-19T12:33:02;49.83;;;30.20;;
15553;SDS011;7878;44.632;10.942;2023-10-19T12:35:33;51.90;;;32.90;;
15553;SDS011;7878;44.632;10.942;2023-10-19T12:38:18;51.97;;;32.13;;
15553;SDS011;7878;44.632;10.942;2023-10-19T12:40:48;57.97;;;32.93;;
15553;SDS011;7878;44.632;10.942;2023-10-19T12:43:19;61.10;;;35.37;;
15553;SDS011;7878;44.632;10.942;2023-10-19T12:45:47;62.93;;;35.13;;
15553;SDS011;7878;44.632;10.942;2023-10-19T12:48:20;54.70;;;34.17;;
15553;SDS011;7878;44.632;10.942;2023-10-19T12:50:46;54.90;;;32.87;;
15553;SDS011;7878;44.632;10.942;2023-10-19T12:53:12;54.90;;;30.87;;
15553;SDS011;7878;44.632;10.942;2023-10-19T12:55:39;54.50;;;31.07;;
15553;SDS011;7878;44.632;10.942;2023-10-19T12:58:05;45.93;;;29.67;;
15553;SDS011;7878;44.632;10.942;2023-10-19T13:00:34;39.67;;;25.10;;
15553;SDS011;7878;44.632;10.942;2023-10-19T13:03:04;40.13;;;25.80;;
15553;SDS011;7878;44.632;10.942;2023-10-19T13:05:33;39.63;;;26.37;;
15553;SDS011;7878;44.632;10.942;2023-10-19T13:08:00;40.97;;;27.57;;
15553;SDS011;7878;44.632;10.942;2023-10-19T13:10:30;51.47;;;29.60;;
15553;SDS011;7878;44.632;10.942;2023-10-19T13:13:07;46.27;;;29.27;;
15553;SDS011;7878;44.632;10.942;2023-10-19T13:15:36;43.77;;;28.37;;
15553;SDS011;7878;44.632;10.942;2023-10-19T13:18:03;41.03;;;26.10;;
15553;SDS011;7878;44.632;10.942;2023-10-19T13:20:34;43.67;;;25.83;;
15553;SDS011;7878;44.632;10.942;2023-10-19T13:23:01;43.93;;;26.23;;
15553;SDS011;7878;44.632;10.942;2023-10-19T13:25:37;33.27;;;22.00;;
15553;SDS011;7878;44.632;10.942;2023-10-19T13:28:07;42.60;;;23.30;;
15553;SDS011;7878;44.632;10.942;2023-10-19T13:30:40;39.97;;;24.40;;
15553;SDS011;7878;44.632;10.942;2023-10-19T13:33:08;38.10;;;22.57;;
15553;SDS011;7878;44.632;10.942;2023-10-19T13:35:37;44.10;;;22.43;;
15553;SDS011;7878;44.632;10.942;2023-10-19T13:38:04;36.80;;;22.80;;
15553;SDS011;7878;44.632;10.942;2023-10-19T13:40:31;39.50;;;22.30;;
15553;SDS011;7878;44.632;10.942;2023-10-19T13:42:57;41.90;;;24.77;;
15553;SDS011;7878;44.632;10.942;2023-10-19T13:45:26;39.70;;;23.87;;
15553;SDS011;7878;44.632;10.942;2023-10-19T13:47:52;41.97;;;24.80;;
15553;SDS011;7878;44.632;10.942;2023-10-19T13:50:23;36.30;;;21.87;;
15553;SDS011;7878;44.632;10.942;2023-10-19T13:52:53;35.77;;;22.97;;
15553;SDS011;7878;44.632;10.942;2023-10-19T13:55:19;34.40;;;22.00;;
15553;SDS011;7878;44.632;10.942;2023-10-19T13:57:46;36.27;;;22.13;;
15553;SDS011;7878;44.632;10.942;2023-10-19T14:00:13;39.60;;;23.13;;
15553;SDS011;7878;44.632;10.942;2023-10-19T14:02:48;34.37;;;21.40;;
15553;SDS011;7878;44.632;10.942;2023-10-19T14:05:14;37.67;;;23.63;;
15553;SDS011;7878;44.632;10.942;2023-10-19T14:07:40;39.67;;;23.13;;
15553;SDS011;7878;44.632;10.942;2023-10-19T14:10:06;35.57;;;21.77;;
15553;SDS011;7878;44.632;10.942;2023-10-19T14:12:37;34.00;;;21.27;;
15553;SDS011;7878;44.632;10.942;2023-10-19T14:15:03;31.43;;;21.73;;
15553;SDS011;7878;44.632;10.942;2023-10-19T14:17:29;35.10;;;20.47;;
15553;SDS011;7878;44.632;10.942;2023-10-19T14:19:55;34.80;;;19.70;;
15553;SDS011;7878;44.632;10.942;2023-10-19T14:22:20;27.53;;;18.07;;
15553;SDS011;7878;44.632;10.942;2023-10-19T14:24:46;30.10;;;18.37;;
15553;SDS011;7878;44.632;10.942;2023-10-19T14:27:12;28.97;;;18.80;;
15553;SDS011;7878;44.632;10.942;2023-10-19T14:29:38;35.83;;;19.33;;
15553;SDS011;7878;44.632;10.942;2023-10-19T14:32:04;26.07;;;17.27;;
15553;SDS011;7878;44.632;10.942;2023-10-19T14:34:30;23.87;;;16.87;;
15553;SDS011;7878;44.632;10.942;2023-10-19T14:36:56;24.80;;;15.97;;
15553;SDS011;7878;44.632;10.942;2023-10-19T14:39:21;22.00;;;16.30;;
15553;SDS011;7878;44.632;10.942;2023-10-19T14:41:49;26.57;;;15.87;;